createdAt,value
2023-05-07T00:02:16.628Z,36.87
2023-05-07T00:04:43.592Z,36.79
2023-05-07T00:07:10.406Z,37.30
2023-05-07T00:09:37.392Z,37.15
2023-05-07T00:12:04.161Z,37.03
2023-05-07T00:14:30.914Z,36.89
2023-05-07T00:16:57.779Z,36.78
2023-05-07T00:19:24.639Z,37.01
2023-05-07T00:21:51.401Z,37.11
2023-05-07T00:24:19.304Z,37.39
2023-05-07T00:26:46.120Z,37.15
2023-05-07T00:29:12.871Z,37.19
2023-05-07T00:31:39.622Z,37.31
2023-05-07T00:34:07.177Z,37.16
2023-05-07T00:36:34.019Z,37.06
2023-05-07T00:39:01.590Z,37.06
2023-05-07T00:41:28.500Z,37.22
2023-05-07T00:43:56.300Z,37.16
2023-05-07T00:46:23.658Z,37.60
2023-05-07T00:48:51.741Z,37.53
2023-05-07T00:51:19.358Z,37.55
2023-05-07T00:53:46.408Z,37.70
2023-05-07T00:56:13.322Z,37.89
2023-05-07T00:58:40.349Z,37.74
2023-05-07T01:01:07.487Z,37.71
2023-05-07T01:03:34.447Z,37.82
2023-05-07T01:06:01.831Z,37.71
2023-05-07T01:08:30.529Z,37.88
2023-05-07T01:10:57.571Z,37.89
2023-05-07T01:13:24.542Z,37.92
2023-05-07T01:15:51.485Z,37.91
2023-05-07T01:18:18.556Z,37.87
2023-05-07T01:20:46.278Z,37.95
2023-05-07T01:23:14.385Z,37.97
2023-05-07T01:25:41.144Z,37.91
2023-05-07T01:28:08.141Z,38.30
2023-05-07T01:30:35.967Z,38.26
2023-05-07T01:33:07.827Z,38.36
2023-05-07T01:35:46.565Z,38.29
2023-05-07T01:38:13.575Z,38.30
2023-05-07T01:40:40.416Z,38.35
2023-05-07T01:43:07.529Z,38.49
2023-05-07T01:45:35.263Z,38.44
2023-05-07T01:48:03.123Z,38.63
2023-05-07T01:50:29.988Z,38.81
2023-05-07T01:52:56.816Z,38.73
2023-05-07T01:55:24.787Z,38.69
2023-05-07T01:57:51.746Z,38.82
2023-05-07T02:00:20.227Z,38.77
2023-05-07T02:02:47.427Z,38.96
2023-05-07T02:05:23.618Z,39.00
2023-05-07T02:07:58.199Z,38.71
2023-05-07T02:10:26.699Z,38.99
2023-05-07T02:12:53.495Z,38.96
2023-05-07T02:15:20.299Z,38.80
2023-05-07T02:18:07.510Z,39.02
2023-05-07T02:20:34.508Z,39.25
2023-05-07T02:23:01.473Z,39.32
2023-05-07T02:25:28.759Z,39.27
2023-05-07T02:27:55.650Z,39.20
2023-05-07T02:30:26.275Z,39.10
2023-05-07T02:32:53.962Z,39.17
2023-05-07T02:35:20.798Z,39.12
2023-05-07T02:37:47.694Z,39.01
2023-05-07T02:40:16.273Z,39.07
2023-05-07T02:42:43.090Z,39.32
2023-05-07T02:45:10.626Z,39.30
2023-05-07T02:47:37.498Z,39.18
2023-05-07T02:50:04.971Z,39.34
2023-05-07T02:52:31.811Z,39.47
2023-05-07T02:54:58.645Z,39.33
2023-05-07T02:57:26.425Z,39.49
2023-05-07T02:59:53.198Z,39.51
2023-05-07T03:02:21.403Z,39.45
2023-05-07T03:04:48.172Z,39.52
2023-05-07T03:07:15.631Z,39.39
2023-05-07T03:11:03.521Z,40.32
2023-05-07T03:13:30.376Z,39.43
2023-05-07T03:15:57.314Z,39.21
2023-05-07T03:18:24.305Z,39.07
2023-05-07T03:20:51.239Z,38.88
2023-05-07T03:23:18.093Z,38.95
2023-05-07T03:25:45.130Z,38.91
2023-05-07T03:28:12.019Z,38.69
2023-05-07T03:30:43.609Z,38.56
2023-05-07T03:33:10.411Z,38.48
2023-05-07T03:35:37.915Z,38.35
2023-05-07T03:38:06.064Z,38.22
2023-05-07T03:40:35.197Z,38.26
2023-05-07T03:43:03.326Z,38.20
2023-05-07T03:45:31.005Z,38.09
2023-05-07T03:48:06.229Z,37.90
2023-05-07T03:50:33.292Z,37.78
2023-05-07T03:53:00.020Z,37.64
2023-05-07T03:55:27.865Z,37.57
2023-05-07T03:57:57.706Z,37.30
2023-05-07T04:00:24.982Z,36.71
2023-05-07T04:02:51.820Z,36.50
2023-05-07T04:05:25.821Z,36.32
2023-05-07T04:07:56.627Z,36.30
2023-05-07T04:10:29.177Z,36.37
2023-05-07T04:12:58.675Z,36.52
2023-05-07T04:15:26.007Z,36.46
2023-05-07T04:17:52.960Z,36.52
2023-05-07T04:20:21.124Z,36.64
2023-05-07T04:22:51.639Z,36.86
2023-05-07T04:25:18.595Z,36.94
2023-05-07T04:27:46.475Z,37.09
2023-05-07T04:30:15.151Z,37.23
2023-05-07T04:32:42.534Z,37.30
2023-05-07T04:35:09.487Z,37.44
2023-05-07T04:37:37.155Z,37.67
2023-05-07T04:40:05.653Z,37.54
2023-05-07T04:42:32.799Z,37.75
2023-05-07T04:45:00.202Z,37.93
2023-05-07T04:47:28.342Z,38.02
2023-05-07T04:49:55.556Z,38.06
2023-05-07T04:52:22.623Z,38.16
2023-05-07T04:54:49.633Z,38.29
2023-05-07T04:57:21.018Z,38.45
2023-05-07T04:59:49.151Z,38.50
2023-05-07T05:02:18.754Z,38.63
2023-05-07T05:04:47.493Z,38.59
2023-05-07T05:07:14.492Z,38.56
2023-05-07T05:09:41.981Z,38.60
2023-05-07T05:12:10.311Z,38.67
2023-05-07T05:14:38.205Z,38.75
2023-05-07T05:17:05.584Z,38.61
2023-05-07T05:19:34.534Z,38.71
2023-05-07T05:22:02.459Z,38.84
2023-05-07T05:24:30.500Z,38.68
2023-05-07T05:26:57.322Z,38.84
2023-05-07T05:29:24.770Z,38.68
2023-05-07T05:31:51.602Z,38.79
2023-05-07T05:34:20.686Z,38.58
2023-05-07T05:36:47.524Z,38.44
2023-05-07T05:39:15.264Z,38.21
2023-05-07T05:41:42.058Z,37.99
2023-05-07T05:44:08.928Z,37.68
2023-05-07T05:46:37.874Z,37.36
2023-05-07T05:49:04.695Z,36.98
2023-05-07T05:51:32.206Z,36.67
2023-05-07T05:53:58.996Z,36.60
2023-05-07T05:56:26.882Z,36.56
2023-05-07T05:58:53.630Z,36.41
2023-05-07T06:01:20.484Z,36.31
2023-05-07T06:03:47.901Z,36.00
2023-05-07T06:06:15.653Z,35.76
2023-05-07T06:08:43.242Z,35.45
2023-05-07T06:11:10.688Z,35.27
2023-05-07T06:13:38.575Z,35.04
2023-05-07T06:16:05.986Z,34.77
2023-05-07T06:18:34.202Z,34.66
2023-05-07T06:21:00.989Z,34.60
2023-05-07T06:23:30.393Z,34.53
2023-05-07T06:25:57.393Z,34.61
2023-05-07T06:28:29.754Z,34.50
2023-05-07T06:30:56.638Z,34.42
2023-05-07T06:33:23.380Z,34.17
2023-05-07T06:35:50.489Z,33.94
2023-05-07T06:38:18.566Z,33.39
2023-05-07T06:40:50.454Z,33.18
2023-05-07T06:43:17.230Z,33.05
2023-05-07T06:45:50.074Z,32.95
2023-05-07T06:48:16.965Z,32.96
2023-05-07T06:50:54.429Z,32.83
2023-05-07T06:53:21.731Z,32.94
2023-05-07T06:55:49.576Z,32.99
2023-05-07T06:58:16.974Z,33.13
2023-05-07T07:00:43.874Z,32.76
2023-05-07T07:03:10.966Z,32.49
2023-05-07T07:05:37.799Z,32.11
2023-05-07T07:08:05.088Z,32.12
2023-05-07T07:10:31.968Z,31.98
2023-05-07T07:13:00.508Z,31.39
2023-05-07T07:15:27.981Z,31.61
2023-05-07T07:17:54.849Z,31.74
2023-05-07T07:20:22.962Z,31.63
2023-05-07T07:22:49.837Z,31.48
2023-05-07T07:25:17.343Z,31.27
2023-05-07T07:27:44.271Z,31.43
2023-05-07T07:30:11.967Z,31.15
2023-05-07T07:32:40.425Z,30.88
2023-05-07T07:35:08.006Z,30.98
2023-05-07T07:37:35.993Z,30.84
2023-05-07T07:40:04.842Z,30.73
2023-05-07T07:42:32.504Z,30.66
2023-05-07T07:44:59.511Z,30.26
2023-05-07T07:47:27.021Z,29.98
2023-05-07T07:49:54.280Z,29.87
2023-05-07T07:52:21.128Z,29.81
2023-05-07T07:54:48.369Z,29.53
2023-05-07T07:57:15.472Z,29.02
2023-05-07T07:59:44.313Z,29.04
2023-05-07T08:02:11.657Z,28.96
2023-05-07T08:04:39.001Z,28.90
2023-05-07T08:07:07.076Z,28.82
2023-05-07T08:09:35.437Z,28.73
2023-05-07T08:12:02.747Z,28.77
2023-05-07T08:14:30.770Z,28.44
2023-05-07T08:16:57.707Z,28.44
2023-05-07T08:19:24.605Z,28.57
2023-05-07T08:21:51.781Z,28.93
2023-05-07T08:24:19.051Z,28.87
2023-05-07T08:26:47.609Z,28.61
2023-05-07T08:29:15.382Z,28.75
2023-05-07T08:31:43.658Z,28.78
2023-05-07T08:34:10.636Z,28.62
2023-05-07T08:36:39.468Z,28.71
2023-05-07T08:39:06.460Z,28.39
2023-05-07T08:41:33.489Z,28.10
2023-05-07T08:44:01.307Z,28.15
2023-05-07T08:46:32.474Z,28.43
2023-05-07T08:48:59.833Z,28.63
2023-05-07T08:51:28.225Z,28.69
2023-05-07T08:53:55.380Z,28.62
2023-05-07T08:56:26.369Z,28.57
2023-05-07T08:58:57.806Z,28.59
2023-05-07T09:01:25.069Z,28.42
2023-05-07T09:03:54.572Z,28.64
2023-05-07T09:06:21.828Z,28.87
2023-05-07T09:08:53.011Z,29.13
2023-05-07T09:11:26.089Z,28.82
2023-05-07T09:13:55.348Z,28.76
2023-05-07T09:16:23.252Z,28.74
2023-05-07T09:18:54.661Z,28.82
2023-05-07T09:21:23.875Z,29.03
2023-05-07T09:23:52.301Z,28.91
2023-05-07T09:26:22.678Z,28.82
2023-05-07T09:28:50.524Z,28.69
2023-05-07T09:31:20.364Z,28.61
2023-05-07T09:33:49.441Z,28.56
2023-05-07T09:36:17.023Z,28.59
2023-05-07T09:38:44.749Z,28.71
2023-05-07T09:41:13.363Z,28.75
2023-05-07T09:43:58.166Z,28.84
2023-05-07T09:46:31.462Z,28.80
2023-05-07T09:48:59.907Z,28.81
2023-05-07T09:51:44.836Z,28.85
2023-05-07T09:54:11.800Z,29.01
2023-05-07T09:56:39.638Z,28.95
2023-05-07T09:59:06.475Z,28.68
2023-05-07T10:01:33.486Z,29.27
2023-05-07T10:04:03.162Z,29.66
2023-05-07T10:06:31.363Z,29.37
2023-05-07T10:08:59.303Z,29.59
2023-05-07T10:11:26.213Z,29.46
2023-05-07T10:13:53.669Z,29.43
2023-05-07T10:16:20.551Z,28.47
2023-05-07T10:18:48.307Z,28.01
2023-05-07T10:21:20.389Z,27.62
2023-05-07T10:24:18.443Z,27.60
2023-05-07T10:26:46.650Z,27.56
2023-05-07T10:29:34.310Z,27.24
2023-05-07T10:32:12.836Z,27.29
2023-05-07T10:34:44.874Z,27.21
2023-05-07T10:37:11.847Z,27.64
2023-05-07T10:39:38.708Z,27.63
2023-05-07T10:42:12.386Z,27.19
2023-05-07T10:44:40.929Z,27.54
2023-05-07T10:47:13.352Z,27.32
2023-05-07T10:49:44.618Z,26.98
2023-05-07T10:52:24.422Z,27.23
2023-05-07T10:55:20.983Z,27.18
2023-05-07T10:57:53.340Z,27.25
2023-05-07T11:03:03.577Z,26.86
2023-05-07T11:05:37.518Z,26.61
2023-05-07T11:08:45.998Z,26.56
2023-05-07T11:11:12.831Z,26.64
2023-05-07T11:13:50.626Z,26.86
2023-05-07T11:16:38.009Z,26.68
2023-05-07T11:19:15.709Z,26.49
2023-05-07T11:21:46.956Z,26.55
2023-05-07T11:24:23.277Z,26.82
2023-05-07T11:27:00.986Z,26.60
2023-05-07T11:29:29.960Z,26.72
2023-05-07T11:32:01.374Z,27.06
2023-05-07T11:34:31.351Z,27.32
2023-05-07T11:36:58.822Z,27.73
2023-05-07T11:39:45.942Z,27.58
2023-05-07T11:42:32.070Z,27.77
2023-05-07T11:44:59.088Z,27.71
2023-05-07T11:47:26.488Z,27.65
2023-05-07T11:49:54.729Z,27.49
2023-05-07T11:52:22.704Z,26.99
2023-05-07T11:54:56.393Z,26.93
2023-05-07T11:57:26.446Z,26.89
2023-05-07T11:59:57.096Z,26.99
2023-05-07T12:02:26.147Z,27.12
2023-05-07T12:04:53.872Z,26.77
2023-05-07T12:07:20.836Z,26.90
2023-05-07T12:09:48.555Z,27.13
2023-05-07T12:12:18.561Z,26.70
2023-05-07T12:14:46.889Z,27.13
2023-05-07T12:17:15.400Z,27.53
2023-05-07T12:19:43.347Z,27.22
2023-05-07T12:22:10.181Z,27.45
2023-05-07T12:24:58.056Z,27.85
2023-05-07T12:27:24.997Z,28.06
2023-05-07T12:29:51.897Z,27.93
2023-05-07T12:32:19.890Z,27.61
2023-05-07T12:34:46.856Z,27.19
2023-05-07T12:37:13.982Z,26.99
2023-05-07T12:39:50.790Z,26.89
2023-05-07T12:42:18.157Z,27.22
2023-05-07T12:44:47.197Z,27.62
2023-05-07T12:47:14.002Z,27.69
2023-05-07T12:49:41.252Z,27.59
2023-05-07T12:52:08.091Z,27.64
2023-05-07T12:54:36.162Z,27.76
2023-05-07T12:57:03.853Z,27.38
2023-05-07T12:59:34.458Z,26.82
2023-05-07T13:02:01.222Z,26.43
2023-05-07T13:04:28.080Z,26.58
2023-05-07T13:06:54.938Z,26.93
2023-05-07T13:09:21.769Z,26.69
2023-05-07T13:11:49.578Z,27.03
2023-05-07T13:14:16.761Z,26.98
2023-05-07T13:16:43.706Z,27.20
2023-05-07T13:19:11.450Z,27.32
2023-05-07T13:21:38.298Z,27.30
2023-05-07T13:24:05.352Z,26.96
2023-05-07T13:26:32.363Z,26.48
2023-05-07T13:28:59.385Z,26.59
2023-05-07T13:31:26.300Z,26.54
2023-05-07T13:33:53.871Z,26.39
2023-05-07T13:36:22.133Z,26.43
2023-05-07T13:38:48.867Z,26.21
2023-05-07T13:41:15.878Z,26.29
2023-05-07T13:43:42.682Z,26.22
2023-05-07T13:46:09.582Z,26.19
2023-05-07T13:48:37.060Z,26.26
2023-05-07T13:51:04.062Z,26.25
2023-05-07T13:53:30.813Z,26.26
2023-05-07T13:55:57.531Z,26.50
2023-05-07T13:58:24.338Z,26.43
2023-05-07T14:00:51.166Z,26.67
2023-05-07T14:03:20.857Z,26.53
2023-05-07T14:05:50.202Z,26.32
2023-05-07T14:08:20.666Z,26.45
2023-05-07T14:10:48.188Z,26.23
2023-05-07T14:13:14.997Z,26.33
2023-05-07T14:15:47.354Z,26.36
2023-05-07T14:18:14.180Z,26.38
2023-05-07T14:20:40.909Z,26.32
2023-05-07T14:23:07.654Z,26.11
2023-05-07T14:25:35.750Z,26.16
2023-05-07T14:28:02.476Z,26.30
2023-05-07T14:30:29.310Z,26.72
2023-05-07T14:32:56.179Z,26.61
2023-05-07T14:35:22.947Z,26.50
2023-05-07T14:37:49.688Z,26.55
2023-05-07T14:40:16.563Z,26.62
2023-05-07T14:42:43.652Z,26.75
2023-05-07T14:45:11.334Z,26.87
2023-05-07T14:47:38.510Z,26.64
2023-05-07T14:50:07.505Z,26.87
2023-05-07T14:52:34.244Z,26.62
2023-05-07T14:55:01.436Z,26.75
2023-05-07T14:57:32.668Z,26.81
2023-05-07T14:59:59.875Z,26.71
2023-05-07T15:02:27.056Z,26.82
2023-05-07T15:04:55.032Z,26.64
2023-05-07T15:07:22.191Z,26.81
2023-05-07T15:09:49.068Z,26.80
2023-05-07T15:12:15.831Z,26.82
2023-05-07T15:14:42.580Z,26.54
2023-05-07T15:17:09.379Z,26.74
2023-05-07T15:19:36.202Z,26.92
2023-05-07T15:22:03.816Z,26.71
2023-05-07T15:24:31.010Z,26.85
2023-05-07T15:28:51.201Z,27.47
2023-05-07T15:31:18.680Z,27.20
2023-05-07T15:33:45.882Z,27.33
2023-05-07T15:36:12.781Z,27.30
2023-05-07T15:38:39.689Z,27.11
2023-05-07T15:41:06.514Z,27.38
2023-05-07T15:43:33.403Z,27.57
2023-05-07T15:46:02.393Z,27.29
2023-05-07T15:48:29.263Z,27.76
2023-05-07T15:50:57.130Z,28.07
2023-05-07T15:53:24.008Z,28.61
2023-05-07T15:55:50.916Z,28.31
2023-05-07T15:58:20.427Z,28.42
2023-05-07T16:00:47.271Z,28.35
2023-05-07T16:03:14.215Z,28.54
2023-05-07T16:05:41.557Z,28.79
2023-05-07T16:08:08.334Z,28.14
2023-05-07T16:10:35.208Z,28.31
2023-05-07T16:13:03.248Z,28.58
2023-05-07T16:15:29.986Z,29.10
2023-05-07T16:17:58.448Z,29.41
2023-05-07T16:20:29.689Z,29.72
2023-05-07T16:22:56.752Z,29.56
2023-05-07T16:25:24.605Z,29.76
2023-05-07T16:27:52.960Z,29.80
2023-05-07T16:30:19.793Z,29.95
2023-05-07T16:32:46.486Z,30.37
2023-05-07T16:35:14.416Z,31.12
2023-05-07T16:37:41.910Z,31.15
2023-05-07T16:40:09.421Z,31.17
2023-05-07T16:42:36.498Z,31.66
2023-05-07T16:45:04.749Z,31.79
2023-05-07T16:47:32.282Z,32.00
2023-05-07T16:50:00.794Z,32.36
2023-05-07T16:52:29.665Z,32.59
2023-05-07T16:54:58.540Z,32.49
2023-05-07T16:57:25.728Z,32.50
2023-05-07T16:59:53.177Z,32.59
2023-05-07T17:02:19.990Z,32.64
2023-05-07T17:04:46.757Z,32.55
2023-05-07T17:07:15.168Z,32.55
2023-05-07T17:09:41.983Z,32.81
2023-05-07T17:12:08.737Z,32.71
2023-05-07T17:14:35.574Z,32.98
2023-05-07T17:17:02.386Z,32.94
2023-05-07T17:19:29.131Z,32.92
2023-05-07T17:21:55.855Z,32.89
2023-05-07T17:24:22.672Z,32.82
2023-05-07T17:26:49.458Z,32.76
2023-05-07T17:29:16.344Z,32.98
2023-05-07T17:31:43.268Z,33.09
2023-05-07T17:34:10.104Z,33.09
2023-05-07T17:36:36.868Z,33.29
2023-05-07T17:39:04.599Z,32.59
2023-05-07T17:41:31.389Z,32.90
2023-05-07T17:43:58.102Z,33.03
2023-05-07T17:46:25.153Z,33.07
2023-05-07T17:48:52.193Z,33.07
2023-05-07T17:51:19.036Z,33.25
2023-05-07T17:53:45.892Z,33.15
2023-05-07T17:56:12.622Z,33.23
2023-05-07T17:58:57.389Z,33.05
2023-05-07T18:01:25.974Z,33.07
2023-05-07T18:03:53.036Z,33.05
2023-05-07T18:06:22.109Z,32.88
2023-05-07T18:08:49.369Z,33.03
2023-05-07T18:11:16.118Z,33.00
2023-05-07T18:13:42.823Z,32.81
2023-05-07T18:16:10.890Z,32.78
2023-05-07T18:18:37.811Z,32.96
2023-05-07T18:21:04.623Z,32.93
2023-05-07T18:23:33.819Z,32.98
2023-05-07T18:26:00.608Z,32.79
2023-05-07T18:28:27.351Z,32.89
2023-05-07T18:30:54.224Z,33.03
2023-05-07T18:33:20.907Z,33.13
2023-05-07T18:35:47.672Z,32.86
2023-05-07T18:38:15.585Z,33.21
2023-05-07T18:40:44.179Z,33.19
2023-05-07T18:43:11.808Z,33.00
2023-05-07T18:45:39.233Z,33.04
2023-05-07T18:48:07.065Z,33.40
2023-05-07T18:50:34.166Z,33.13
2023-05-07T18:53:01.813Z,33.27
2023-05-07T18:55:28.731Z,33.39
2023-05-07T18:57:55.517Z,33.30
2023-05-07T19:00:22.518Z,33.30
2023-05-07T19:02:49.311Z,33.46
2023-05-07T19:05:18.545Z,33.32
2023-05-07T19:07:47.196Z,33.43
2023-05-07T19:10:14.983Z,33.49
2023-05-07T19:12:41.803Z,33.34
2023-05-07T19:15:10.813Z,33.58
2023-05-07T19:17:37.680Z,33.53
2023-05-07T19:22:37.351Z,33.61
2023-05-07T19:25:04.719Z,33.82
2023-05-07T19:27:31.590Z,33.87
2023-05-07T19:29:58.489Z,34.06
2023-05-07T19:32:26.067Z,34.24
2023-05-07T19:34:52.843Z,34.20
2023-05-07T19:37:22.968Z,34.25
2023-05-07T19:39:51.062Z,34.15
2023-05-07T19:42:17.919Z,34.09
2023-05-07T19:44:44.752Z,34.37
2023-05-07T19:47:11.935Z,34.42
2023-05-07T19:49:38.875Z,34.51
2023-05-07T19:52:05.983Z,34.63
2023-05-07T19:54:32.718Z,34.74
2023-05-07T19:56:59.476Z,34.74
2023-05-07T19:59:27.331Z,34.83
2023-05-07T20:01:54.284Z,35.07
2023-05-07T20:04:21.085Z,35.01
2023-05-07T20:06:47.956Z,34.78
2023-05-07T20:09:14.702Z,34.67
2023-05-07T20:11:41.395Z,34.79
2023-05-07T20:14:10.158Z,34.78
2023-05-07T20:16:37.168Z,34.70
2023-05-07T20:19:03.986Z,34.71
2023-05-07T20:21:31.439Z,34.87
2023-05-07T20:23:58.219Z,34.82
2023-05-07T20:26:24.926Z,34.97
2023-05-07T20:28:51.677Z,35.00
2023-05-07T20:31:19.125Z,35.12
2023-05-07T20:33:47.018Z,35.15
2023-05-07T20:36:13.839Z,35.16
2023-05-07T20:38:40.586Z,35.16
2023-05-07T20:41:08.378Z,35.32
2023-05-07T20:43:36.009Z,35.31
2023-05-07T20:46:03.465Z,35.48
2023-05-07T20:48:31.448Z,35.47
2023-05-07T20:50:58.661Z,35.45
2023-05-07T20:53:26.127Z,35.71
2023-05-07T20:55:52.861Z,35.64
2023-05-07T20:58:19.619Z,36.10
2023-05-07T21:00:46.365Z,36.38
2023-05-07T21:03:13.207Z,36.50
2023-05-07T21:05:39.916Z,36.54
2023-05-07T21:08:06.617Z,36.92
2023-05-07T21:10:33.361Z,36.74
2023-05-07T21:13:00.274Z,36.85
2023-05-07T21:15:27.170Z,36.84
2023-05-07T21:17:53.970Z,36.92
2023-05-07T21:20:20.725Z,36.93
2023-05-07T21:22:47.467Z,37.05
2023-05-07T21:25:14.298Z,36.97
2023-05-07T21:27:41.608Z,37.01
2023-05-07T21:30:09.308Z,36.88
2023-05-07T21:32:36.161Z,37.03
2023-05-07T21:35:03.089Z,37.16
2023-05-07T21:37:29.854Z,36.99
2023-05-07T21:39:56.606Z,36.99
2023-05-07T21:42:25.016Z,37.11
2023-05-07T21:44:51.769Z,37.26
2023-05-07T21:47:18.930Z,37.26
2023-05-07T21:49:46.231Z,37.16
2023-05-07T21:52:13.797Z,37.25
2023-05-07T21:54:40.670Z,37.10
2023-05-07T21:57:07.745Z,37.17
2023-05-07T21:59:34.471Z,37.07
2023-05-07T22:02:01.361Z,37.21
2023-05-07T22:04:28.148Z,37.15
2023-05-07T22:06:55.375Z,37.02
2023-05-07T22:09:22.326Z,37.09
2023-05-07T22:11:49.105Z,36.87
2023-05-07T22:14:17.333Z,36.95
2023-05-07T22:16:46.964Z,37.08
2023-05-07T22:19:15.135Z,37.22
2023-05-07T22:21:41.928Z,37.09
2023-05-07T22:24:08.696Z,37.15
2023-05-07T22:26:35.414Z,37.25
2023-05-07T22:29:03.143Z,37.42
2023-05-07T22:31:30.105Z,37.31
2023-05-07T22:33:56.862Z,37.24
2023-05-07T22:36:23.605Z,37.36
2023-05-07T22:38:50.372Z,37.16
2023-05-07T22:41:17.230Z,36.91
2023-05-07T22:43:43.921Z,37.16
2023-05-07T22:46:11.692Z,36.98
2023-05-07T22:48:38.411Z,36.96
2023-05-07T22:51:05.167Z,36.80
2023-05-07T22:53:32.067Z,36.88
2023-05-07T22:55:59.479Z,36.93
2023-05-07T22:58:26.361Z,36.89
2023-05-07T23:00:53.141Z,37.00
2023-05-07T23:03:19.950Z,36.93
2023-05-07T23:05:47.277Z,36.87
2023-05-07T23:08:14.065Z,36.81
2023-05-07T23:10:40.884Z,36.82
2023-05-07T23:13:13.431Z,36.48
2023-05-07T23:15:40.369Z,36.70
2023-05-07T23:18:07.141Z,36.59
2023-05-07T23:20:33.938Z,36.65
2023-05-07T23:23:02.304Z,36.88
2023-05-07T23:25:29.888Z,36.63
2023-05-07T23:27:56.648Z,36.67
2023-05-07T23:30:23.385Z,36.62
2023-05-07T23:32:50.139Z,36.83
2023-05-07T23:35:16.940Z,36.99
2023-05-07T23:37:43.684Z,37.21
2023-05-07T23:40:10.687Z,37.44
2023-05-07T23:42:38.725Z,37.35
2023-05-07T23:45:06.930Z,37.47
2023-05-07T23:47:34.064Z,37.42
2023-05-07T23:50:00.929Z,37.76
2023-05-07T23:52:27.644Z,37.70
2023-05-07T23:54:54.459Z,37.51
2023-05-07T23:57:21.344Z,37.70
2023-05-07T23:59:48.057Z,37.74
